createdAt,value
2023-05-20T00:01:47.047Z,13.30
2023-05-20T00:04:16.295Z,13.40
2023-05-20T00:06:44.212Z,13.30
2023-05-20T00:09:12.070Z,13.30
2023-05-20T00:11:39.964Z,13.30
2023-05-20T00:14:07.877Z,13.30
2023-05-20T00:16:36.754Z,13.20
2023-05-20T00:19:04.765Z,13.30
2023-05-20T00:21:34.052Z,13.30
2023-05-20T00:24:01.964Z,13.30
2023-05-20T00:26:30.843Z,13.20
2023-05-20T00:28:58.705Z,13.20
2023-05-20T00:31:26.626Z,13.20
2023-05-20T00:33:54.532Z,13.20
2023-05-20T00:36:22.443Z,13.20
2023-05-20T00:38:51.694Z,13.20
2023-05-20T00:41:19.557Z,13.20
2023-05-20T00:43:47.426Z,13.20
2023-05-20T00:46:15.466Z,13.20
2023-05-20T00:48:44.891Z,13.20
2023-05-20T00:51:14.133Z,13.20
2023-05-20T00:53:43.108Z,13.20
2023-05-20T00:56:13.462Z,13.20
2023-05-20T00:58:41.786Z,13.20
2023-05-20T01:01:09.662Z,13.20
2023-05-20T01:03:37.757Z,13.20
2023-05-20T01:06:06.917Z,13.20
2023-05-20T01:08:35.766Z,13.20
2023-05-20T01:11:07.806Z,13.20
2023-05-20T01:13:44.342Z,13.10
2023-05-20T01:16:12.717Z,13.10
2023-05-20T01:18:43.054Z,13.10
2023-05-20T01:21:13.153Z,13.10
2023-05-20T01:23:43.153Z,13.10
2023-05-20T01:26:13.700Z,13.10
2023-05-20T01:28:44.546Z,13.10
2023-05-20T01:31:16.880Z,13.10
2023-05-20T01:33:45.289Z,13.10
2023-05-20T01:36:13.743Z,13.10
2023-05-20T01:38:44.152Z,13.10
2023-05-20T01:41:13.386Z,13.10
2023-05-20T01:43:41.842Z,13.10
2023-05-20T01:46:09.915Z,13.10
2023-05-20T01:48:38.305Z,13.10
2023-05-20T01:51:06.284Z,13.10
2023-05-20T01:53:34.266Z,13.10
2023-05-20T01:56:03.876Z,13.10
2023-05-20T01:58:31.801Z,13.10
2023-05-20T02:01:00.076Z,13.10
2023-05-20T02:03:28.117Z,13.10
2023-05-20T02:05:56.190Z,13.20
2023-05-20T02:08:24.268Z,13.20
2023-05-20T02:10:52.176Z,13.20
2023-05-20T02:13:21.438Z,13.20
2023-05-20T02:15:49.338Z,13.20
2023-05-20T02:18:18.519Z,13.20
2023-05-20T02:20:46.641Z,13.20
2023-05-20T02:23:14.645Z,13.20
2023-05-20T02:25:42.794Z,13.20
2023-05-20T02:28:11.267Z,13.20
2023-05-20T02:30:40.697Z,13.20
2023-05-20T02:33:09.784Z,13.20
2023-05-20T02:35:38.020Z,13.20
2023-05-20T02:38:06.161Z,13.20
2023-05-20T02:40:34.236Z,13.20
2023-05-20T02:43:02.481Z,13.20
2023-05-20T02:45:30.885Z,13.20
2023-05-20T02:48:00.289Z,13.20
2023-05-20T02:50:28.630Z,13.10
2023-05-20T02:52:57.474Z,13.10
2023-05-20T02:55:25.390Z,13.10
2023-05-20T02:57:53.556Z,13.10
2023-05-20T03:00:23.209Z,13.10
2023-05-20T03:02:51.234Z,13.10
2023-05-20T03:05:20.452Z,13.10
2023-05-20T03:07:48.742Z,13.10
2023-05-20T03:10:16.672Z,13.10
2023-05-20T03:12:44.632Z,13.10
2023-05-20T03:15:12.758Z,13.10
2023-05-20T03:17:40.738Z,13.10
2023-05-20T03:20:10.209Z,13.10
2023-05-20T03:22:39.492Z,13.10
2023-05-20T03:25:07.864Z,13.00
2023-05-20T03:27:36.973Z,13.10
2023-05-20T03:30:05.937Z,13.00
2023-05-20T03:32:33.822Z,13.00
2023-05-20T03:35:01.907Z,13.00
2023-05-20T03:37:29.816Z,13.00
2023-05-20T03:39:59.084Z,13.00
2023-05-20T03:42:26.990Z,13.00
2023-05-20T03:44:54.864Z,13.00
2023-05-20T03:47:22.793Z,12.90
2023-05-20T03:49:50.652Z,12.90
2023-05-20T03:52:18.660Z,12.90
2023-05-20T03:54:46.645Z,12.90
2023-05-20T03:57:16.167Z,12.90
2023-05-20T03:59:44.061Z,12.90
2023-05-20T04:02:12.187Z,12.90
2023-05-20T04:04:43.030Z,12.90
2023-05-20T04:07:11.094Z,12.90
2023-05-20T04:09:39.884Z,12.90
2023-05-20T04:12:08.167Z,12.90
2023-05-20T04:14:38.913Z,12.90
2023-05-20T04:17:07.058Z,12.90
2023-05-20T04:19:36.322Z,12.90
2023-05-20T04:22:04.191Z,12.90
2023-05-20T04:24:32.071Z,12.90
2023-05-20T04:26:59.971Z,12.90
2023-05-20T04:29:28.549Z,12.90
2023-05-20T04:31:58.811Z,12.90
2023-05-20T04:34:26.962Z,12.90
2023-05-20T04:36:54.996Z,12.80
2023-05-20T04:39:22.895Z,12.80
2023-05-20T04:41:51.076Z,12.80
2023-05-20T04:44:18.970Z,12.80
2023-05-20T04:46:47.037Z,12.80
2023-05-20T04:49:16.301Z,12.80
2023-05-20T04:51:44.270Z,12.90
2023-05-20T04:54:12.167Z,12.90
2023-05-20T04:56:40.152Z,12.90
2023-05-20T04:59:09.698Z,12.90
2023-05-20T05:01:37.794Z,12.90
2023-05-20T05:04:06.203Z,12.90
2023-05-20T05:06:36.227Z,13.00
2023-05-20T05:09:04.783Z,13.00
2023-05-20T05:11:32.764Z,13.10
2023-05-20T05:14:00.828Z,13.10
2023-05-20T05:16:28.833Z,13.10
2023-05-20T05:18:56.927Z,13.10
2023-05-20T05:21:24.919Z,13.10
2023-05-20T05:23:56.199Z,13.10
2023-05-20T05:26:26.507Z,13.20
2023-05-20T05:28:55.191Z,13.20
2023-05-20T05:31:23.174Z,13.20
2023-05-20T05:33:51.103Z,13.20
2023-05-20T05:36:19.117Z,13.20
2023-05-20T05:38:47.061Z,13.20
2023-05-20T05:41:16.350Z,13.20
2023-05-20T05:43:44.292Z,13.20
2023-05-20T05:46:12.171Z,13.30
2023-05-20T05:48:40.101Z,13.30
2023-05-20T05:51:08.006Z,13.40
2023-05-20T05:53:35.906Z,13.40
2023-05-20T05:56:03.837Z,13.40
2023-05-20T05:58:33.617Z,13.50
2023-05-20T06:01:02.029Z,13.50
2023-05-20T06:03:30.161Z,13.50
2023-05-20T06:05:58.341Z,13.60
2023-05-20T06:08:26.546Z,13.70
2023-05-20T06:10:54.505Z,13.70
2023-05-20T06:13:22.455Z,13.80
2023-05-20T06:15:53.601Z,14.00
2023-05-20T06:18:21.552Z,14.20
2023-05-20T06:20:56.107Z,14.40
2023-05-20T06:23:24.032Z,14.50
2023-05-20T06:25:52.145Z,14.80
2023-05-20T06:28:21.698Z,15.20
2023-05-20T06:30:51.048Z,15.40
2023-05-20T06:33:20.238Z,15.90
2023-05-20T06:35:48.481Z,16.20
2023-05-20T06:38:16.427Z,16.50
2023-05-20T06:40:44.389Z,16.50
2023-05-20T06:43:12.315Z,16.50
2023-05-20T06:45:40.302Z,16.60
2023-05-20T06:48:09.901Z,16.50
2023-05-20T06:50:38.293Z,16.60
2023-05-20T06:53:06.227Z,16.50
2023-05-20T06:55:34.459Z,16.40
2023-05-20T06:58:02.563Z,16.20
2023-05-20T07:00:31.052Z,16.30
2023-05-20T07:03:04.629Z,16.10
2023-05-20T07:05:34.049Z,16.00
2023-05-20T07:08:02.138Z,15.90
2023-05-20T07:10:30.848Z,15.80
2023-05-20T07:12:58.829Z,15.80
2023-05-20T07:15:26.891Z,15.60
2023-05-20T07:17:54.921Z,15.50
2023-05-20T07:20:22.993Z,15.30
2023-05-20T07:22:52.282Z,15.20
2023-05-20T07:25:20.254Z,15.00
2023-05-20T07:27:48.176Z,15.00
2023-05-20T07:30:16.117Z,15.00
2023-05-20T07:32:44.076Z,15.00
2023-05-20T07:35:12.371Z,15.10
2023-05-20T07:37:40.797Z,15.10
2023-05-20T07:40:11.276Z,15.20
2023-05-20T07:42:39.173Z,15.20
2023-05-20T07:45:08.079Z,15.20
2023-05-20T07:47:36.040Z,15.40
2023-05-20T07:50:04.064Z,15.50
2023-05-20T07:52:35.669Z,15.60
2023-05-20T07:55:13.743Z,15.70
2023-05-20T07:57:42.995Z,15.70
2023-05-20T08:00:13.648Z,15.70
2023-05-20T08:02:41.661Z,15.60
2023-05-20T08:05:10.386Z,15.70
2023-05-20T08:07:38.297Z,15.60
2023-05-20T08:10:07.225Z,15.60
2023-05-20T08:12:36.666Z,15.60
2023-05-20T08:15:05.148Z,15.70
2023-05-20T08:17:34.293Z,15.90
2023-05-20T08:20:02.475Z,16.10
2023-05-20T08:22:30.473Z,16.10
2023-05-20T08:24:58.390Z,16.10
2023-05-20T08:27:26.371Z,16.10
2023-05-20T08:29:55.651Z,16.20
2023-05-20T08:32:23.698Z,16.40
2023-05-20T08:34:51.632Z,16.50
2023-05-20T08:37:19.606Z,16.30
2023-05-20T08:39:49.212Z,16.30
2023-05-20T08:42:21.208Z,16.50
2023-05-20T08:44:49.834Z,17.10
2023-05-20T08:47:19.243Z,17.70
2023-05-20T08:49:47.330Z,18.00
2023-05-20T08:52:17.471Z,18.20
2023-05-20T08:54:47.049Z,17.90
2023-05-20T08:57:15.153Z,17.70
2023-05-20T08:59:44.661Z,17.50
2023-05-20T09:02:12.839Z,17.30
2023-05-20T09:04:42.393Z,17.00
2023-05-20T09:07:10.538Z,17.00
2023-05-20T09:09:38.477Z,16.90
2023-05-20T09:12:06.974Z,16.70
2023-05-20T09:14:34.874Z,16.60
2023-05-20T09:17:02.826Z,16.60
2023-05-20T09:19:30.802Z,16.70
2023-05-20T09:22:00.273Z,16.90
2023-05-20T09:24:28.198Z,17.40
2023-05-20T09:26:56.536Z,17.80
2023-05-20T09:29:24.708Z,18.00
2023-05-20T09:31:53.227Z,18.50
2023-05-20T09:34:21.963Z,19.20
2023-05-20T09:36:51.951Z,19.30
2023-05-20T09:39:26.938Z,19.20
2023-05-20T09:41:58.780Z,19.20
2023-05-20T09:44:28.919Z,19.50
2023-05-20T09:46:58.053Z,19.80
2023-05-20T09:49:27.900Z,20.20
2023-05-20T09:51:57.245Z,20.70
2023-05-20T09:54:28.413Z,20.80
2023-05-20T09:56:58.359Z,20.70
2023-05-20T09:59:28.054Z,20.30
2023-05-20T10:01:56.149Z,20.40
2023-05-20T10:04:26.693Z,20.60
2023-05-20T10:07:30.555Z,21.00
2023-05-20T10:10:18.062Z,21.00
2023-05-20T10:12:56.476Z,20.30
2023-05-20T10:15:40.266Z,19.60
2023-05-20T10:18:17.313Z,19.50
2023-05-20T10:20:48.858Z,19.70
2023-05-20T10:23:24.106Z,19.40
2023-05-20T10:25:54.714Z,19.20
2023-05-20T10:28:33.223Z,19.40
2023-05-20T10:31:01.616Z,19.50
2023-05-20T10:33:30.873Z,19.70
2023-05-20T10:36:00.307Z,20.10
2023-05-20T10:38:28.302Z,20.30
2023-05-20T10:41:09.266Z,20.60
2023-05-20T10:43:37.320Z,21.10
2023-05-20T10:46:10.301Z,21.50
2023-05-20T10:48:44.265Z,21.50
2023-05-20T10:51:15.707Z,21.60
2023-05-20T10:53:47.007Z,21.60
2023-05-20T10:56:20.306Z,21.90
2023-05-20T10:58:49.212Z,21.80
2023-05-20T11:01:19.119Z,21.60
2023-05-20T11:03:48.227Z,21.30
2023-05-20T11:06:18.786Z,20.90
2023-05-20T11:08:47.579Z,20.60
2023-05-20T11:11:16.291Z,20.40
2023-05-20T11:13:45.933Z,20.30
2023-05-20T11:16:14.325Z,20.30
2023-05-20T11:18:42.301Z,20.20
2023-05-20T11:21:10.273Z,19.90
2023-05-20T11:23:40.567Z,19.90
2023-05-20T11:26:08.921Z,19.80
2023-05-20T11:28:37.360Z,19.90
2023-05-20T11:31:07.411Z,19.80
2023-05-20T11:33:35.369Z,20.10
2023-05-20T11:36:08.526Z,20.20
2023-05-20T11:38:38.826Z,20.20
2023-05-20T11:41:07.096Z,20.40
2023-05-20T11:43:35.337Z,20.90
2023-05-20T11:46:03.442Z,21.20
2023-05-20T11:48:32.781Z,21.70
2023-05-20T11:51:02.192Z,21.80
2023-05-20T11:53:30.431Z,22.10
2023-05-20T11:56:00.126Z,22.30
2023-05-20T11:58:30.311Z,22.00
2023-05-20T12:01:05.703Z,21.40
2023-05-20T12:03:38.887Z,21.40
2023-05-20T12:06:06.971Z,21.70
2023-05-20T12:08:34.933Z,22.10
2023-05-20T12:11:03.272Z,22.30
2023-05-20T12:13:32.615Z,22.60
2023-05-20T12:16:02.502Z,22.30
2023-05-20T12:18:30.538Z,22.60
2023-05-20T12:20:59.989Z,22.90
2023-05-20T12:23:29.605Z,22.80
2023-05-20T12:25:57.554Z,22.70
2023-05-20T12:28:25.582Z,22.80
2023-05-20T12:30:53.573Z,22.70
2023-05-20T12:33:21.661Z,22.70
2023-05-20T12:35:49.608Z,22.70
2023-05-20T12:38:19.089Z,22.50
2023-05-20T12:40:47.086Z,22.00
2023-05-20T12:43:14.996Z,21.50
2023-05-20T12:45:43.024Z,21.30
2023-05-20T12:48:11.088Z,21.60
2023-05-20T12:50:39.258Z,22.20
2023-05-20T12:53:07.238Z,22.70
2023-05-20T12:55:36.528Z,23.30
2023-05-20T12:58:04.436Z,23.80
2023-05-20T13:00:32.450Z,23.40
2023-05-20T13:03:00.632Z,23.70
2023-05-20T13:05:28.785Z,24.10
2023-05-20T13:07:56.722Z,24.20
2023-05-20T13:10:24.661Z,24.50
2023-05-20T13:12:54.581Z,24.30
2023-05-20T13:15:22.608Z,24.10
2023-05-20T13:17:50.566Z,23.70
2023-05-20T13:20:19.864Z,23.10
2023-05-20T13:22:48.739Z,23.10
2023-05-20T13:25:16.857Z,23.40
2023-05-20T13:27:44.854Z,23.40
2023-05-20T13:30:14.478Z,23.20
2023-05-20T13:32:42.563Z,23.40
2023-05-20T13:35:10.961Z,23.70
2023-05-20T13:37:38.905Z,23.40
2023-05-20T13:40:08.556Z,23.30
2023-05-20T13:42:36.667Z,22.90
2023-05-20T13:45:05.157Z,23.00
2023-05-20T13:47:34.507Z,23.10
2023-05-20T13:50:03.365Z,22.90
2023-05-20T13:52:31.728Z,22.70
2023-05-20T13:54:59.758Z,22.30
2023-05-20T13:57:27.824Z,21.80
2023-05-20T13:59:55.701Z,21.50
2023-05-20T14:02:23.669Z,21.50
2023-05-20T14:04:52.895Z,21.70
2023-05-20T14:07:20.813Z,21.80
2023-05-20T14:09:48.761Z,21.80
2023-05-20T14:12:16.735Z,21.90
2023-05-20T14:14:44.673Z,22.20
2023-05-20T14:17:12.579Z,22.50
2023-05-20T14:19:40.555Z,22.60
2023-05-20T14:22:09.799Z,22.70
2023-05-20T14:24:37.829Z,22.90
2023-05-20T14:27:06.199Z,22.90
2023-05-20T14:29:34.066Z,22.80
2023-05-20T14:32:03.998Z,22.70
2023-05-20T14:34:32.009Z,22.30
2023-05-20T14:37:05.517Z,22.00
2023-05-20T14:39:34.746Z,21.70
2023-05-20T14:42:03.168Z,21.60
2023-05-20T14:44:31.567Z,21.40
2023-05-20T14:46:59.622Z,21.20
2023-05-20T14:49:27.637Z,21.10
2023-05-20T14:51:55.672Z,20.90
2023-05-20T14:54:25.077Z,20.90
2023-05-20T14:56:55.257Z,20.90
2023-05-20T14:59:23.142Z,20.90
2023-05-20T15:01:51.085Z,21.00
2023-05-20T15:04:19.076Z,21.00
2023-05-20T15:06:47.206Z,21.00
2023-05-20T15:09:15.089Z,20.90
2023-05-20T15:11:43.008Z,20.90
2023-05-20T15:14:12.314Z,20.90
2023-05-20T15:16:40.276Z,20.80
2023-05-20T15:19:08.321Z,20.70
2023-05-20T15:21:36.272Z,20.60
2023-05-20T15:24:04.297Z,20.50
2023-05-20T15:26:32.876Z,20.40
2023-05-20T15:29:00.848Z,20.40
2023-05-20T15:31:30.155Z,20.30
2023-05-20T15:33:58.220Z,20.40
2023-05-20T15:36:26.231Z,20.40
2023-05-20T15:38:54.124Z,20.50
2023-05-20T15:41:23.060Z,20.50
2023-05-20T15:43:51.080Z,20.40
2023-05-20T15:46:19.106Z,20.20
2023-05-20T15:48:48.336Z,20.20
2023-05-20T15:51:17.883Z,20.10
2023-05-20T15:53:45.907Z,20.10
2023-05-20T15:56:13.961Z,20.10
2023-05-20T15:58:42.131Z,20.00
2023-05-20T16:01:10.030Z,19.90
2023-05-20T16:03:38.074Z,19.90
2023-05-20T16:06:07.497Z,19.90
2023-05-20T16:08:37.325Z,19.90
2023-05-20T16:11:06.036Z,19.80
2023-05-20T16:13:34.034Z,19.70
2023-05-20T16:16:02.121Z,19.70
2023-05-20T16:18:30.048Z,19.70
2023-05-20T16:20:58.844Z,19.60
2023-05-20T16:23:28.064Z,19.60
2023-05-20T16:25:55.926Z,19.60
2023-05-20T16:28:25.365Z,19.60
2023-05-20T16:30:54.378Z,19.60
2023-05-20T16:33:22.283Z,19.60
2023-05-20T16:35:50.217Z,19.60
2023-05-20T16:38:18.155Z,19.60
2023-05-20T16:40:47.361Z,19.60
2023-05-20T16:43:15.404Z,19.60
2023-05-20T16:45:43.317Z,19.60
2023-05-20T16:48:11.345Z,19.60
2023-05-20T16:50:39.239Z,19.60
2023-05-20T16:53:07.106Z,19.50
2023-05-20T16:55:34.977Z,19.50
2023-05-20T16:58:04.197Z,19.50
2023-05-20T17:00:32.381Z,19.40
2023-05-20T17:03:00.697Z,19.40
2023-05-20T17:05:28.627Z,19.40
2023-05-20T17:08:00.006Z,19.40
2023-05-20T17:10:28.867Z,19.30
2023-05-20T17:12:56.867Z,19.30
2023-05-20T17:15:26.311Z,19.30
2023-05-20T17:17:54.271Z,19.30
2023-05-20T17:20:22.174Z,19.30
2023-05-20T17:22:50.103Z,19.40
2023-05-20T17:25:18.164Z,19.40
2023-05-20T17:27:46.161Z,19.40
2023-05-20T17:30:14.154Z,19.30
2023-05-20T17:32:43.608Z,19.20
2023-05-20T17:35:11.625Z,19.10
2023-05-20T17:37:39.543Z,19.10
2023-05-20T17:40:08.404Z,19.10
2023-05-20T17:42:36.284Z,19.00
2023-05-20T17:45:04.360Z,19.00
2023-05-20T17:47:32.321Z,18.90
2023-05-20T17:50:02.647Z,18.80
2023-05-20T17:52:30.916Z,18.80
2023-05-20T17:54:58.819Z,18.70
2023-05-20T17:57:26.886Z,18.70
2023-05-20T17:59:55.230Z,18.70
2023-05-20T18:02:23.296Z,18.60
2023-05-20T18:04:51.312Z,18.60
2023-05-20T18:07:20.556Z,18.50
2023-05-20T18:09:48.509Z,18.40
2023-05-20T18:12:16.407Z,18.40
2023-05-20T18:14:44.311Z,18.30
2023-05-20T18:17:12.303Z,18.30
2023-05-20T18:19:40.290Z,18.20
2023-05-20T18:22:08.189Z,18.10
2023-05-20T18:24:37.426Z,18.10
2023-05-20T18:27:05.743Z,18.00
2023-05-20T18:29:33.755Z,18.00
2023-05-20T18:32:01.722Z,17.90
2023-05-20T18:34:29.702Z,17.90
2023-05-20T18:36:57.611Z,17.80
2023-05-20T18:39:25.521Z,17.80
2023-05-20T18:41:54.780Z,17.70
2023-05-20T18:44:22.740Z,17.70
2023-05-20T18:46:50.850Z,17.70
2023-05-20T18:49:18.743Z,17.70
2023-05-20T18:51:46.728Z,17.60
2023-05-20T18:54:14.629Z,17.60
2023-05-20T18:56:42.682Z,17.60
2023-05-20T18:59:11.900Z,17.50
2023-05-20T19:01:40.136Z,17.50
2023-05-20T19:04:08.219Z,17.40
2023-05-20T19:06:37.626Z,17.30
2023-05-20T19:09:05.903Z,17.30
2023-05-20T19:11:33.797Z,17.30
2023-05-20T19:14:01.975Z,17.20
2023-05-20T19:16:31.403Z,17.20
2023-05-20T19:18:59.395Z,17.10
2023-05-20T19:21:27.282Z,17.10
2023-05-20T19:23:55.211Z,17.00
2023-05-20T19:26:23.157Z,17.00
2023-05-20T19:28:51.048Z,17.00
2023-05-20T19:31:21.172Z,17.00
2023-05-20T19:33:50.924Z,17.00
2023-05-20T19:36:18.812Z,16.90
2023-05-20T19:38:46.847Z,16.90
2023-05-20T19:41:16.151Z,16.80
2023-05-20T19:43:44.051Z,16.80
2023-05-20T19:46:12.036Z,16.80
2023-05-20T19:48:39.988Z,16.80
2023-05-20T19:51:10.452Z,16.70
2023-05-20T19:53:39.007Z,16.80
2023-05-20T19:56:08.334Z,16.70
2023-05-20T19:58:36.292Z,16.70
2023-05-20T20:01:04.572Z,16.70
2023-05-20T20:03:34.032Z,16.70
2023-05-20T20:06:02.280Z,16.70
2023-05-20T20:08:31.702Z,16.60
2023-05-20T20:10:59.571Z,16.60
2023-05-20T20:13:27.442Z,16.60
2023-05-20T20:15:55.454Z,16.60
2023-05-20T20:18:23.377Z,16.60
2023-05-20T20:20:51.321Z,16.50
2023-05-20T20:23:19.280Z,16.50
2023-05-20T20:25:50.645Z,16.50
2023-05-20T20:28:18.693Z,16.50
2023-05-20T20:30:46.549Z,16.50
2023-05-20T20:33:14.475Z,16.40
2023-05-20T20:35:42.635Z,16.40
2023-05-20T20:38:10.527Z,16.40
2023-05-20T20:40:41.625Z,16.40
2023-05-20T20:43:20.672Z,16.40
2023-05-20T20:45:51.019Z,16.40
2023-05-20T20:48:19.136Z,16.40
2023-05-20T20:50:47.800Z,16.40
2023-05-20T20:53:17.116Z,16.40
2023-05-20T20:55:46.141Z,16.30
2023-05-20T20:58:15.989Z,16.40
2023-05-20T21:00:44.492Z,16.40
2023-05-20T21:03:12.735Z,16.30
2023-05-20T21:05:40.883Z,16.30
2023-05-20T21:08:10.168Z,16.20
2023-05-20T21:10:38.188Z,16.20
2023-05-20T21:13:06.127Z,16.20
2023-05-20T21:15:35.780Z,16.20
2023-05-20T21:18:04.035Z,16.10
2023-05-20T21:20:32.003Z,16.10
2023-05-20T21:22:59.873Z,16.10
2023-05-20T21:25:27.779Z,16.10
2023-05-20T21:27:55.658Z,16.00
2023-05-20T21:30:24.553Z,16.00
2023-05-20T21:32:53.807Z,16.00
2023-05-20T21:35:21.744Z,16.00
2023-05-20T21:37:49.941Z,15.90
2023-05-20T21:40:17.828Z,15.90
2023-05-20T21:42:45.696Z,15.90
2023-05-20T21:45:13.629Z,15.90
2023-05-20T21:47:41.527Z,15.90
2023-05-20T21:50:12.213Z,15.90
2023-05-20T21:52:40.715Z,15.80
2023-05-20T21:55:10.434Z,15.80
2023-05-20T21:57:38.624Z,15.80
2023-05-20T22:00:10.259Z,15.80
2023-05-20T22:02:38.466Z,15.80
2023-05-20T22:05:06.761Z,15.80
2023-05-20T22:07:36.001Z,15.80
2023-05-20T22:10:04.002Z,15.80
2023-05-20T22:12:32.190Z,15.80
2023-05-20T22:15:00.123Z,15.80
2023-05-20T22:17:28.049Z,15.80
2023-05-20T22:19:55.958Z,15.80
2023-05-20T22:22:23.822Z,15.80
2023-05-20T22:24:53.048Z,15.80
2023-05-20T22:27:21.268Z,15.80
2023-05-20T22:29:49.173Z,15.80
2023-05-20T22:32:17.044Z,15.80
2023-05-20T22:34:46.446Z,15.80
2023-05-20T22:37:14.405Z,15.80
2023-05-20T22:39:42.371Z,15.80
2023-05-20T22:42:11.610Z,15.80
2023-05-20T22:44:39.459Z,15.80
2023-05-20T22:47:07.470Z,15.80
2023-05-20T22:49:35.604Z,15.80
2023-05-20T22:52:03.525Z,15.80
2023-05-20T22:54:31.402Z,15.70
2023-05-20T22:56:59.991Z,15.80
2023-05-20T22:59:31.158Z,15.70
2023-05-20T23:01:59.267Z,15.70
2023-05-20T23:04:27.223Z,15.70
2023-05-20T23:06:56.756Z,15.80
2023-05-20T23:09:25.824Z,15.80
2023-05-20T23:11:53.731Z,15.70
2023-05-20T23:14:21.750Z,15.70
2023-05-20T23:16:51.033Z,15.70
2023-05-20T23:19:18.967Z,15.70
2023-05-20T23:21:46.862Z,15.80
2023-05-20T23:24:15.276Z,15.80
2023-05-20T23:26:43.191Z,15.80
2023-05-20T23:29:11.198Z,15.80
2023-05-20T23:31:39.891Z,15.80
2023-05-20T23:34:09.378Z,15.80
2023-05-20T23:36:37.307Z,15.90
2023-05-20T23:39:05.434Z,15.90
2023-05-20T23:41:33.288Z,15.90
2023-05-20T23:44:01.789Z,15.90
2023-05-20T23:46:30.189Z,15.90
2023-05-20T23:49:00.317Z,15.90
2023-05-20T23:51:29.564Z,15.90
2023-05-20T23:53:57.439Z,15.90
2023-05-20T23:56:25.951Z,15.80
2023-05-20T23:58:53.818Z,15.80
